createdAt,value
2019-05-25T00:00:11.774Z,17.32
2019-05-25T00:02:40.892Z,19.73
2019-05-25T00:05:10.250Z,13.05
2019-05-25T00:07:39.338Z,17.75
2019-05-25T00:10:08.604Z,18.70
2019-05-25T00:12:37.736Z,16.80
2019-05-25T00:15:07.857Z,14.30
2019-05-25T00:17:38.236Z,17.12
2019-05-25T00:20:07.889Z,15.30
2019-05-25T00:22:38.001Z,15.10
2019-05-25T00:25:09.759Z,17.15
2019-05-25T00:27:38.853Z,17.57
2019-05-25T00:30:08.364Z,34.15
2019-05-25T00:32:37.464Z,32.75
2019-05-25T00:35:06.970Z,23.65
2019-05-25T00:37:36.053Z,21.55
2019-05-25T00:40:06.192Z,18.67
2019-05-25T00:42:34.858Z,20.00
2019-05-25T00:45:04.572Z,16.77
2019-05-25T00:47:33.194Z,16.77
2019-05-25T00:50:01.834Z,16.70
2019-05-25T00:52:30.442Z,18.12
2019-05-25T00:55:00.127Z,18.30
2019-05-25T00:57:28.831Z,18.75
2019-05-25T00:59:57.424Z,17.77
2019-05-25T01:02:26.105Z,17.98
2019-05-25T01:04:54.764Z,16.40
2019-05-25T01:07:25.931Z,12.85
2019-05-25T01:09:54.613Z,14.03
2019-05-25T01:12:23.279Z,13.95
2019-05-25T01:14:52.375Z,12.40
2019-05-25T01:17:25.563Z,12.98
2019-05-25T01:19:57.954Z,12.15
2019-05-25T01:22:26.545Z,10.32
2019-05-25T01:24:55.239Z,10.63
2019-05-25T01:27:23.890Z,14.30
2019-05-25T01:29:52.496Z,16.02
2019-05-25T01:32:22.186Z,12.18
2019-05-25T01:34:53.248Z,13.53
2019-05-25T01:37:22.934Z,13.10
2019-05-25T01:39:51.563Z,15.65
2019-05-25T01:42:20.200Z,13.40
2019-05-25T01:44:48.801Z,12.88
2019-05-25T01:47:17.479Z,13.28
2019-05-25T01:49:47.179Z,16.50
2019-05-25T01:52:15.822Z,14.03
2019-05-25T01:54:58.825Z,13.53
2019-05-25T01:57:14.776Z,15.75
2019-05-25T01:59:43.459Z,15.00
2019-05-25T02:02:12.146Z,15.78
2019-05-25T02:04:40.738Z,15.18
2019-05-25T02:07:09.425Z,14.85
2019-05-25T02:09:41.836Z,12.98
2019-05-25T02:12:11.459Z,14.15
2019-05-25T02:14:42.623Z,13.58
2019-05-25T02:17:11.240Z,11.83
2019-05-25T02:19:39.827Z,10.45
2019-05-25T02:22:08.585Z,9.78
2019-05-25T02:24:37.201Z,13.83
2019-05-25T02:27:05.962Z,12.25
2019-05-25T02:29:34.588Z,9.38
2019-05-25T02:32:03.138Z,12.03
2019-05-25T02:34:31.876Z,15.65
2019-05-25T02:37:00.511Z,11.25
2019-05-25T02:39:30.409Z,17.57
2019-05-25T02:41:59.104Z,11.55
2019-05-25T02:44:30.604Z,17.62
2019-05-25T02:46:58.014Z,12.40
2019-05-25T02:49:26.630Z,11.85
2019-05-25T02:51:55.388Z,13.00
2019-05-25T02:54:23.972Z,11.35
2019-05-25T02:56:52.873Z,12.93
2019-05-25T02:59:22.581Z,12.60
2019-05-25T03:01:51.237Z,11.30
2019-05-25T03:04:19.944Z,14.47
2019-05-25T03:06:49.651Z,12.77
2019-05-25T03:09:18.865Z,14.70
2019-05-25T03:11:48.973Z,14.87
2019-05-25T03:14:20.008Z,14.53
2019-05-25T03:16:48.686Z,11.95
2019-05-25T03:19:17.367Z,16.17
2019-05-25T03:21:49.854Z,12.68
2019-05-25T03:24:18.430Z,16.42
2019-05-25T03:26:47.121Z,14.33
2019-05-25T03:29:15.789Z,16.45
2019-05-25T03:31:46.033Z,15.75
2019-05-25T03:34:14.624Z,20.55
2019-05-25T03:36:46.061Z,23.57
2019-05-25T03:39:14.729Z,20.88
2019-05-25T03:41:44.363Z,18.15
2019-05-25T03:44:14.472Z,22.02
2019-05-25T03:46:43.050Z,23.18
2019-05-25T03:49:11.644Z,20.60
2019-05-25T03:51:40.220Z,23.70
2019-05-25T03:54:08.819Z,28.57
2019-05-25T03:56:38.571Z,25.57
2019-05-25T03:59:07.300Z,25.55
2019-05-25T04:01:35.883Z,32.88
2019-05-25T04:04:04.547Z,43.52
2019-05-25T04:06:34.671Z,38.02
2019-05-25T04:09:04.807Z,40.48
2019-05-25T04:11:34.418Z,45.50
2019-05-25T04:14:03.078Z,42.35
2019-05-25T04:16:31.685Z,34.88
2019-05-25T04:19:01.344Z,30.00
2019-05-25T04:21:31.064Z,24.57
2019-05-25T04:23:59.779Z,22.93
2019-05-25T04:26:28.556Z,23.15
2019-05-25T04:28:57.171Z,22.55
2019-05-25T04:31:25.740Z,21.87
2019-05-25T04:33:58.251Z,24.07
2019-05-25T04:36:26.980Z,21.27
2019-05-25T04:38:55.585Z,17.62
2019-05-25T04:41:24.169Z,22.05
2019-05-25T04:43:52.754Z,20.97
2019-05-25T04:46:21.716Z,20.27
2019-05-25T04:48:50.536Z,15.05
2019-05-25T04:51:19.213Z,19.77
2019-05-25T04:53:47.880Z,15.95
2019-05-25T04:56:20.029Z,19.95
2019-05-25T04:58:48.754Z,15.38
2019-05-25T05:01:17.419Z,19.15
2019-05-25T05:03:50.876Z,14.03
2019-05-25T05:06:19.522Z,14.90
2019-05-25T05:08:48.099Z,16.02
2019-05-25T05:11:19.246Z,16.80
2019-05-25T05:13:47.924Z,19.30
2019-05-25T05:16:16.515Z,17.50
2019-05-25T05:18:46.202Z,16.30
2019-05-25T05:21:14.807Z,18.60
2019-05-25T05:23:46.970Z,22.70
2019-05-25T05:26:15.555Z,16.42
2019-05-25T05:28:44.143Z,18.87
2019-05-25T05:31:23.286Z,17.23
2019-05-25T05:33:44.253Z,15.72
2019-05-25T05:36:13.584Z,21.60
2019-05-25T05:38:42.244Z,15.23
2019-05-25T05:41:11.334Z,18.10
2019-05-25T05:43:41.148Z,17.40
2019-05-25T05:46:09.932Z,14.75
2019-05-25T05:48:40.005Z,18.27
2019-05-25T05:51:10.644Z,15.95
2019-05-25T05:53:39.394Z,16.45
2019-05-25T05:56:07.999Z,17.90
2019-05-25T05:58:36.556Z,19.50
2019-05-25T06:01:05.133Z,16.65
2019-05-25T06:03:33.736Z,16.95
2019-05-25T06:06:02.383Z,13.95
2019-05-25T06:08:30.987Z,14.70
2019-05-25T06:10:59.665Z,15.13
2019-05-25T06:13:28.258Z,14.68
2019-05-25T06:15:56.873Z,18.62
2019-05-25T06:18:25.608Z,15.60
2019-05-25T06:20:55.316Z,12.43
2019-05-25T06:23:23.950Z,11.10
2019-05-25T06:25:52.996Z,10.93
2019-05-25T06:28:22.606Z,8.95
2019-05-25T06:30:51.821Z,7.72
2019-05-25T06:33:20.909Z,10.75
2019-05-25T06:35:49.579Z,7.25
2019-05-25T06:38:18.187Z,8.35
2019-05-25T06:40:46.760Z,6.92
2019-05-25T06:43:16.809Z,8.58
2019-05-25T06:45:45.563Z,9.18
2019-05-25T06:48:14.643Z,9.13
2019-05-25T06:50:43.749Z,7.03
2019-05-25T06:53:12.831Z,8.90
2019-05-25T06:55:41.516Z,8.35
2019-05-25T06:58:10.612Z,7.90
2019-05-25T07:00:39.708Z,7.47
2019-05-25T07:03:08.802Z,7.83
2019-05-25T07:05:37.915Z,8.58
2019-05-25T07:08:09.050Z,5.83
2019-05-25T07:10:38.748Z,8.63
2019-05-25T07:13:07.864Z,8.83
2019-05-25T07:15:36.938Z,14.65
2019-05-25T07:18:05.931Z,6.85
2019-05-25T07:20:35.132Z,8.38
2019-05-25T07:23:04.222Z,7.08
2019-05-25T07:25:33.317Z,9.00
2019-05-25T07:28:02.413Z,10.30
2019-05-25T07:30:31.510Z,10.03
2019-05-25T07:33:00.604Z,6.12
2019-05-25T07:35:29.698Z,9.00
2019-05-25T07:37:58.797Z,7.35
2019-05-25T07:40:27.890Z,8.35
2019-05-25T07:42:56.983Z,6.25
2019-05-25T07:45:26.181Z,8.98
2019-05-25T07:47:55.286Z,6.35
2019-05-25T07:50:24.476Z,6.25
2019-05-25T07:52:53.672Z,6.90
2019-05-25T07:55:24.408Z,6.45
2019-05-25T07:57:53.506Z,6.58
2019-05-25T08:00:22.697Z,7.80
2019-05-25T08:02:51.891Z,6.83
2019-05-25T08:05:20.988Z,7.33
2019-05-25T08:07:52.694Z,9.58
2019-05-25T08:10:21.947Z,8.70
2019-05-25T08:12:52.068Z,7.17
2019-05-25T08:15:22.182Z,5.10
2019-05-25T08:17:51.273Z,5.97
2019-05-25T08:20:20.782Z,7.15
2019-05-25T08:22:50.028Z,6.37
2019-05-25T08:25:21.715Z,5.20
2019-05-25T08:27:50.920Z,5.72
2019-05-25T08:30:20.026Z,6.28
2019-05-25T08:32:49.120Z,5.03
2019-05-25T08:35:19.447Z,7.05
2019-05-25T08:37:50.901Z,5.92
2019-05-25T08:40:19.988Z,7.03
2019-05-25T08:42:49.085Z,6.37
2019-05-25T08:45:19.104Z,5.28
2019-05-25T08:47:48.197Z,10.98
2019-05-25T08:50:17.372Z,4.85
2019-05-25T08:52:46.488Z,4.05
2019-05-25T08:55:18.866Z,4.62
2019-05-25T08:57:50.390Z,10.25
2019-05-25T09:00:19.774Z,4.00
2019-05-25T09:02:50.345Z,5.25
2019-05-25T09:05:18.952Z,4.33
2019-05-25T09:07:48.122Z,6.15
2019-05-25T09:10:18.242Z,5.53
2019-05-25T09:12:47.342Z,6.90
2019-05-25T09:15:16.633Z,5.80
2019-05-25T09:17:45.833Z,4.12
2019-05-25T09:20:15.235Z,5.25
2019-05-25T09:22:44.332Z,11.18
2019-05-25T09:25:13.531Z,7.62
2019-05-25T09:27:43.543Z,8.35
2019-05-25T09:30:12.856Z,4.62
2019-05-25T09:32:41.938Z,3.33
2019-05-25T09:35:11.279Z,4.12
2019-05-25T09:37:40.362Z,22.13
2019-05-25T09:40:09.747Z,3.72
2019-05-25T09:42:39.123Z,6.78
2019-05-25T09:45:13.923Z,5.65
2019-05-25T09:47:45.321Z,9.20
2019-05-25T09:50:14.741Z,2.98
2019-05-25T09:52:43.814Z,6.00
2019-05-25T09:55:13.315Z,6.25
2019-05-25T09:57:42.412Z,5.87
2019-05-25T10:00:13.604Z,7.47
2019-05-25T10:02:47.036Z,4.00
2019-05-25T10:05:16.665Z,3.95
2019-05-25T10:07:48.333Z,2.77
2019-05-25T10:10:17.744Z,5.78
2019-05-25T10:12:46.812Z,3.30
2019-05-25T10:15:16.022Z,3.58
2019-05-25T10:17:45.041Z,3.40
2019-05-25T10:20:14.458Z,4.20
2019-05-25T10:22:47.700Z,2.67
2019-05-25T10:25:17.430Z,4.40
2019-05-25T10:27:46.514Z,4.65
2019-05-25T10:30:16.192Z,1.67
2019-05-25T10:32:45.307Z,14.60
2019-05-25T10:35:15.097Z,3.15
2019-05-25T10:37:44.212Z,36.25
2019-05-25T10:40:15.901Z,6.37
2019-05-25T10:42:45.067Z,15.45
2019-05-25T10:45:14.931Z,6.87
2019-05-25T10:47:44.072Z,5.22
2019-05-25T10:50:14.705Z,7.45
2019-05-25T10:52:43.901Z,8.30
2019-05-25T10:55:13.729Z,22.15
2019-05-25T10:57:42.812Z,6.42
2019-05-25T11:00:12.944Z,3.52
2019-05-25T11:02:42.022Z,5.37
2019-05-25T11:05:13.340Z,7.35
2019-05-25T11:07:42.465Z,3.50
2019-05-25T11:10:13.481Z,4.80
2019-05-25T11:12:42.601Z,3.85
2019-05-25T11:15:12.002Z,4.00
2019-05-25T11:17:42.228Z,3.65
2019-05-25T11:20:12.465Z,5.28
2019-05-25T11:22:41.554Z,5.83
2019-05-25T11:25:10.854Z,6.15
2019-05-25T11:27:42.949Z,4.53
2019-05-25T11:30:17.585Z,4.58
2019-05-25T11:32:50.977Z,6.33
2019-05-25T11:35:22.478Z,9.83
2019-05-25T11:37:51.574Z,2.70
2019-05-25T11:40:22.993Z,2.62
2019-05-25T11:42:56.777Z,3.67
2019-05-25T11:45:23.432Z,3.10
2019-05-25T11:47:52.510Z,3.90
2019-05-25T11:50:22.004Z,2.50
2019-05-25T11:52:51.168Z,2.08
2019-05-25T11:55:20.254Z,4.05
2019-05-25T11:57:49.347Z,3.20
2019-05-25T12:00:25.343Z,3.15
2019-05-25T12:02:50.814Z,5.53
2019-05-25T12:05:20.345Z,3.02
2019-05-25T12:07:50.539Z,1.90
2019-05-25T12:10:21.273Z,3.98
2019-05-25T12:12:50.473Z,3.45
2019-05-25T12:15:19.755Z,3.80
2019-05-25T12:17:48.949Z,5.92
2019-05-25T12:20:18.480Z,5.92
2019-05-25T12:22:47.568Z,3.90
2019-05-25T12:25:16.977Z,2.65
2019-05-25T12:27:48.994Z,3.70
2019-05-25T12:30:19.034Z,3.55
2019-05-25T12:32:51.117Z,2.25
2019-05-25T12:35:20.620Z,5.25
2019-05-25T12:37:49.817Z,3.33
2019-05-25T12:40:19.116Z,4.25
2019-05-25T12:42:48.211Z,2.65
2019-05-25T12:45:17.446Z,2.87
2019-05-25T12:47:46.503Z,3.70
2019-05-25T12:50:15.802Z,3.17
2019-05-25T12:52:48.753Z,2.20
2019-05-25T12:55:18.094Z,21.95
2019-05-25T12:57:47.184Z,1.80
2019-05-25T13:00:18.021Z,3.02
2019-05-25T13:02:47.113Z,4.45
2019-05-25T13:05:16.414Z,3.60
2019-05-25T13:07:45.404Z,4.05
2019-05-25T13:10:14.799Z,2.37
2019-05-25T13:12:43.905Z,5.25
2019-05-25T13:15:13.073Z,2.40
2019-05-25T13:17:44.861Z,3.87
2019-05-25T13:20:14.573Z,2.40
2019-05-25T13:22:43.764Z,3.70
2019-05-25T13:25:12.974Z,2.22
2019-05-25T13:27:42.059Z,3.87
2019-05-25T13:30:11.361Z,4.72
2019-05-25T13:32:40.452Z,5.72
2019-05-25T13:35:10.092Z,2.72
2019-05-25T13:37:39.360Z,5.60
2019-05-25T13:40:08.664Z,3.17
2019-05-25T13:42:37.751Z,5.62
2019-05-25T13:45:09.206Z,3.10
2019-05-25T13:47:38.403Z,3.55
2019-05-25T13:50:09.396Z,3.70
2019-05-25T13:52:38.645Z,28.95
2019-05-25T13:55:08.267Z,8.40
2019-05-25T13:57:37.690Z,6.05
2019-05-25T14:00:10.235Z,4.20
2019-05-25T14:02:39.321Z,4.97
2019-05-25T14:05:09.437Z,3.60
2019-05-25T14:07:38.837Z,4.53
2019-05-25T14:10:11.414Z,1.92
2019-05-25T14:12:40.426Z,2.22
2019-05-25T14:15:10.583Z,5.92
2019-05-25T14:17:39.830Z,17.37
2019-05-25T14:20:10.467Z,3.70
2019-05-25T14:22:39.562Z,4.45
2019-05-25T14:25:09.789Z,3.00
2019-05-25T14:27:38.885Z,3.85
2019-05-25T14:30:08.888Z,4.22
2019-05-25T14:32:45.361Z,5.37
2019-05-25T14:35:14.662Z,2.05
2019-05-25T14:37:50.039Z,10.00
2019-05-25T14:40:19.201Z,3.22
2019-05-25T14:42:51.782Z,4.20
2019-05-25T14:45:21.007Z,5.70
2019-05-25T14:47:53.715Z,8.08
2019-05-25T14:50:23.786Z,2.77
2019-05-25T14:52:52.959Z,6.10
2019-05-25T14:55:23.956Z,2.98
2019-05-25T14:57:52.992Z,5.30
2019-05-25T15:00:22.193Z,2.33
2019-05-25T15:02:54.696Z,5.83
2019-05-25T15:05:23.348Z,4.03
2019-05-25T15:07:51.949Z,4.30
2019-05-25T15:10:20.616Z,2.80
2019-05-25T15:12:49.215Z,9.28
2019-05-25T15:15:18.015Z,6.33
2019-05-25T15:17:46.591Z,3.47
2019-05-25T15:20:15.525Z,7.90
2019-05-25T15:22:46.812Z,10.38
2019-05-25T15:25:14.590Z,8.10
2019-05-25T15:27:43.171Z,7.92
2019-05-25T15:30:12.148Z,3.20
2019-05-25T15:32:40.831Z,5.53
2019-05-25T15:35:11.892Z,3.85
2019-05-25T15:37:40.558Z,6.85
2019-05-25T15:40:09.961Z,4.42
2019-05-25T15:42:38.563Z,6.00
2019-05-25T15:45:07.440Z,2.80
2019-05-25T15:47:42.277Z,5.08
2019-05-25T15:50:11.662Z,5.12
2019-05-25T15:52:40.270Z,3.08
2019-05-25T15:55:09.136Z,3.90
2019-05-25T15:57:39.185Z,4.15
2019-05-25T16:00:09.288Z,8.68
2019-05-25T16:02:40.228Z,9.25
2019-05-25T16:05:09.219Z,8.08
2019-05-25T16:07:39.235Z,5.33
2019-05-25T16:10:09.529Z,7.17
2019-05-25T16:12:38.142Z,6.37
2019-05-25T16:15:09.283Z,7.42
2019-05-25T16:17:38.791Z,3.72
2019-05-25T16:20:07.703Z,7.42
2019-05-25T16:22:36.259Z,6.17
2019-05-25T16:25:06.407Z,6.00
2019-05-25T16:27:34.987Z,7.67
2019-05-25T16:30:07.421Z,5.40
2019-05-25T16:33:07.229Z,4.22
2019-05-25T16:35:06.741Z,3.67
2019-05-25T16:37:35.637Z,5.62
2019-05-25T16:40:06.058Z,4.30
2019-05-25T16:42:34.680Z,6.67
2019-05-25T16:45:05.927Z,7.33
2019-05-25T16:47:35.489Z,5.85
2019-05-25T16:50:09.544Z,3.67
2019-05-25T16:52:38.615Z,3.62
2019-05-25T16:55:09.429Z,3.35
2019-05-25T16:57:38.545Z,4.45
2019-05-25T17:00:09.876Z,2.98
2019-05-25T17:02:38.969Z,4.05
2019-05-25T17:05:10.026Z,3.75
2019-05-25T17:07:38.793Z,2.67
2019-05-25T17:10:07.706Z,4.95
2019-05-25T17:12:37.397Z,4.12
2019-05-25T17:15:06.593Z,3.02
2019-05-25T17:17:35.190Z,2.70
2019-05-25T17:20:04.403Z,3.37
2019-05-25T17:22:33.065Z,2.65
2019-05-25T17:25:01.749Z,1.95
2019-05-25T17:27:30.347Z,1.67
2019-05-25T17:29:58.927Z,2.85
2019-05-25T17:32:27.631Z,2.30
2019-05-25T17:34:56.296Z,3.00
2019-05-25T17:37:25.479Z,2.37
2019-05-25T17:39:54.572Z,1.42
2019-05-25T17:42:23.664Z,2.77
2019-05-25T17:44:52.762Z,3.08
2019-05-25T17:47:21.959Z,4.60
2019-05-25T17:49:51.054Z,2.98
2019-05-25T17:52:22.687Z,5.65
2019-05-25T17:54:50.870Z,3.70
2019-05-25T17:57:20.080Z,3.80
2019-05-25T17:59:49.173Z,7.92
2019-05-25T18:02:17.774Z,5.12
2019-05-25T18:04:46.444Z,5.50
2019-05-25T18:07:15.435Z,6.05
2019-05-25T18:09:47.995Z,4.62
2019-05-25T18:12:16.610Z,4.60
2019-05-25T18:14:45.278Z,6.50
2019-05-25T18:17:14.380Z,5.17
2019-05-25T18:19:43.077Z,6.78
2019-05-25T18:22:11.845Z,9.95
2019-05-25T18:24:41.474Z,2.22
2019-05-25T18:27:10.131Z,2.45
2019-05-25T18:29:39.338Z,3.92
2019-05-25T18:32:08.036Z,5.33
2019-05-25T18:34:36.705Z,3.00
2019-05-25T18:37:06.181Z,3.95
2019-05-25T18:39:34.752Z,4.22
2019-05-25T18:42:03.408Z,11.83
2019-05-25T18:44:32.075Z,6.17
2019-05-25T18:47:00.773Z,7.78
2019-05-25T18:49:29.637Z,3.00
2019-05-25T18:51:58.251Z,4.40
2019-05-25T18:54:26.955Z,4.85
2019-05-25T18:56:57.029Z,2.25
2019-05-25T18:59:25.709Z,5.75
2019-05-25T19:01:54.494Z,5.35
2019-05-25T19:04:42.096Z,4.00
2019-05-25T19:06:55.688Z,3.27
2019-05-25T19:09:25.250Z,2.60
2019-05-25T19:11:54.844Z,1.90
2019-05-25T19:14:24.170Z,2.15
2019-05-25T19:16:53.346Z,2.40
2019-05-25T19:19:22.649Z,6.33
2019-05-25T19:21:51.680Z,1.98
2019-05-25T19:24:24.237Z,3.10
2019-05-25T19:26:55.168Z,5.62
2019-05-25T19:29:27.755Z,1.80
2019-05-25T19:31:56.846Z,4.17
2019-05-25T19:34:28.510Z,2.47
2019-05-25T19:37:03.774Z,1.52
2019-05-25T19:39:29.458Z,3.17
2019-05-25T19:41:58.552Z,8.90
2019-05-25T19:44:28.335Z,4.87
2019-05-25T19:46:58.523Z,3.72
2019-05-25T19:49:27.271Z,2.77
2019-05-25T19:51:59.335Z,1.80
2019-05-25T19:54:28.894Z,2.52
2019-05-25T19:56:58.063Z,2.20
2019-05-25T19:59:27.130Z,1.77
2019-05-25T20:01:56.377Z,4.12
2019-05-25T20:04:29.019Z,2.87
2019-05-25T20:06:58.203Z,4.95
2019-05-25T20:09:27.408Z,4.42
2019-05-25T20:11:56.806Z,2.65
2019-05-25T20:14:28.586Z,1.90
2019-05-25T20:16:58.866Z,2.08
2019-05-25T20:19:28.182Z,3.22
2019-05-25T20:21:58.997Z,2.00
2019-05-25T20:24:28.626Z,3.05
2019-05-25T20:27:01.338Z,2.92
2019-05-25T20:29:28.354Z,1.17
2019-05-25T20:31:57.451Z,2.67
2019-05-25T20:34:26.540Z,3.30
2019-05-25T20:36:55.636Z,4.37
2019-05-25T20:39:24.826Z,1.98
2019-05-25T20:41:54.134Z,2.95
2019-05-25T20:44:23.230Z,3.10
2019-05-25T20:46:53.465Z,2.45
2019-05-25T20:49:24.044Z,2.83
2019-05-25T20:51:52.356Z,1.40
2019-05-25T20:54:21.202Z,3.15
2019-05-25T20:56:54.139Z,2.47
2019-05-25T20:59:25.183Z,3.00
2019-05-25T21:01:53.956Z,2.15
2019-05-25T21:04:22.581Z,2.27
2019-05-25T21:06:51.145Z,2.52
2019-05-25T21:09:19.812Z,1.37
2019-05-25T21:11:48.420Z,2.83
2019-05-25T21:14:18.101Z,3.17
2019-05-25T21:16:48.036Z,3.42
2019-05-25T21:19:17.112Z,1.17
2019-05-25T21:21:46.210Z,3.45
2019-05-25T21:24:15.410Z,3.45
2019-05-25T21:26:49.436Z,5.25
2019-05-25T21:29:19.532Z,4.33
2019-05-25T21:31:48.626Z,2.45
2019-05-25T21:34:17.720Z,2.30
2019-05-25T21:36:51.907Z,4.00
2019-05-25T21:39:20.644Z,3.75
2019-05-25T21:41:50.154Z,2.62
2019-05-25T21:44:18.811Z,2.15
2019-05-25T21:46:48.724Z,1.92
2019-05-25T21:49:17.325Z,3.45
2019-05-25T21:51:47.205Z,2.40
2019-05-25T21:54:15.824Z,2.15
2019-05-25T21:56:45.927Z,3.47
2019-05-25T21:59:14.530Z,2.60
2019-05-25T22:01:43.110Z,2.42
2019-05-25T22:04:11.727Z,2.47
2019-05-25T22:06:42.814Z,2.52
2019-05-25T22:09:11.604Z,2.35
2019-05-25T22:11:40.259Z,3.60
2019-05-25T22:14:09.807Z,4.03
2019-05-25T22:16:39.273Z,3.60
2019-05-25T22:19:11.789Z,3.92
2019-05-25T22:21:40.869Z,1.60
2019-05-25T22:24:09.961Z,2.87
2019-05-25T22:26:38.960Z,2.40
2019-05-25T22:29:13.304Z,4.28
2019-05-25T22:31:46.677Z,4.92
2019-05-25T22:34:15.864Z,4.03
2019-05-25T22:36:44.858Z,2.95
2019-05-25T22:39:14.057Z,2.20
2019-05-25T22:41:43.956Z,2.35
2019-05-25T22:44:13.067Z,3.60
2019-05-25T22:46:42.160Z,4.17
2019-05-25T22:49:12.279Z,3.50
2019-05-25T22:51:41.371Z,5.75
2019-05-25T22:54:10.470Z,2.87
2019-05-25T22:56:42.840Z,3.35
2019-05-25T22:59:11.936Z,3.80
2019-05-25T23:01:41.031Z,2.17
2019-05-25T23:04:10.058Z,3.55
2019-05-25T23:06:56.058Z,3.20
2019-05-25T23:09:12.723Z,3.27
2019-05-25T23:11:41.315Z,3.45
2019-05-25T23:14:10.083Z,3.60
2019-05-25T23:16:38.791Z,6.35
2019-05-25T23:19:07.465Z,6.47
2019-05-25T23:21:40.076Z,6.90
2019-05-25T23:24:08.819Z,5.37
2019-05-25T23:26:38.645Z,6.47
2019-05-25T23:29:08.282Z,4.87
2019-05-25T23:31:36.838Z,5.20
2019-05-25T23:34:05.426Z,4.72
2019-05-25T23:36:34.117Z,5.00
2019-05-25T23:39:02.693Z,4.90
2019-05-25T23:41:31.360Z,4.00
2019-05-25T23:44:00.892Z,6.28
2019-05-25T23:46:29.582Z,5.42
2019-05-25T23:48:58.153Z,4.67
2019-05-25T23:51:26.736Z,5.50
2019-05-25T23:53:56.327Z,4.17
2019-05-25T23:56:24.876Z,5.40
2019-05-25T23:58:53.588Z,4.33
